CheckWX is a tool to help pilots better visualize weather data.  It is not intended as a substitute for an official pre-flight weather briefing.

13:22:50 UTC

KLSE METAR
La Crosse Regional Airport
La Crosse, Wisconsin, USA
Current

30 mins ago

KLSE 221253Z 00000KT 1 1/2SM BR SCT090 M15/M17 A3043 RMK AO2 SLP329 I1000 T11501167
Observed
Feb-22 @ 12:53 UTC
Visibility
1 1/2 SM
Flight Rules
IFR
Conditions
Mist
Cloud Levels
  • Scattered at 9,000' AGL
Temperature
-15°C / 5°F
Dewpoint
-17°C / 1°F
Humidity
85%
Altimeter
30.43" Hg
Pressure
1032.9 hPa
Previous

43 mins ago

KLSE 221240Z 00000KT 2 1/2SM BR BKN090 M16/M17 A3043 RMK AO2 T11561172
Observed
Feb-22 @ 12:40 UTC
Visibility
2 1/2 SM
Flight Rules
IFR
Conditions
Mist
Cloud Levels
  • Broken at 9,000' AGL
Temperature
-16°C / 3°F
Dewpoint
-17°C / 1°F
Humidity
92%
Altimeter
30.43" Hg
Pressure
1030.51 hPa
Previous

1 hour ago

KLSE 221153Z 00000KT 10SM FEW080 M13/M15 A3040 RMK AO2 SLP320 T11331150 11106 21144 58002
Observed
Feb-22 @ 11:53 UTC
Visibility
10 SM
Flight Rules
VFR
Cloud Levels
  • Few at 8,000' AGL
Temperature
-13°C / 9°F
Dewpoint
-15°C / 5°F
Humidity
85%
Altimeter
30.4" Hg
Pressure
1032 hPa